sensor_id;sensor_type;location;lat;lon;timestamp;P1;durP1;ratioP1;P2;durP2;ratioP2
14698;SDS011;7439;50.804;4.602;2023-04-25T00:01:02;16.97;;;7.50;;
14698;SDS011;7439;50.804;4.602;2023-04-25T00:03:30;17.17;;;7.67;;
14698;SDS011;7439;50.804;4.602;2023-04-25T00:05:58;17.47;;;7.33;;
14698;SDS011;7439;50.804;4.602;2023-04-25T00:08:27;13.10;;;6.83;;
14698;SDS011;7439;50.804;4.602;2023-04-25T00:10:54;13.13;;;6.77;;
14698;SDS011;7439;50.804;4.602;2023-04-25T00:13:22;17.53;;;7.27;;
14698;SDS011;7439;50.804;4.602;2023-04-25T00:15:51;22.53;;;7.37;;
14698;SDS011;7439;50.804;4.602;2023-04-25T00:18:19;15.03;;;7.37;;
14698;SDS011;7439;50.804;4.602;2023-04-25T00:20:46;15.83;;;6.87;;
14698;SDS011;7439;50.804;4.602;2023-04-25T00:23:14;22.63;;;7.00;;
14698;SDS011;7439;50.804;4.602;2023-04-25T00:25:43;14.77;;;6.60;;
14698;SDS011;7439;50.804;4.602;2023-04-25T00:28:10;16.80;;;6.90;;
14698;SDS011;7439;50.804;4.602;2023-04-25T00:30:38;19.30;;;7.57;;
14698;SDS011;7439;50.804;4.602;2023-04-25T00:33:06;23.33;;;7.43;;
14698;SDS011;7439;50.804;4.602;2023-04-25T00:35:34;18.53;;;7.60;;
14698;SDS011;7439;50.804;4.602;2023-04-25T00:38:01;16.23;;;7.00;;
14698;SDS011;7439;50.804;4.602;2023-04-25T00:40:28;17.23;;;7.17;;
14698;SDS011;7439;50.804;4.602;2023-04-25T00:42:56;14.37;;;6.27;;
14698;SDS011;7439;50.804;4.602;2023-04-25T00:45:23;16.87;;;7.03;;
14698;SDS011;7439;50.804;4.602;2023-04-25T00:47:54;17.43;;;6.97;;
14698;SDS011;7439;50.804;4.602;2023-04-25T00:50:23;15.03;;;6.97;;
14698;SDS011;7439;50.804;4.602;2023-04-25T00:52:50;15.60;;;6.53;;
14698;SDS011;7439;50.804;4.602;2023-04-25T00:55:18;26.13;;;7.70;;
14698;SDS011;7439;50.804;4.602;2023-04-25T00:57:46;15.90;;;7.30;;
14698;SDS011;7439;50.804;4.602;2023-04-25T01:00:14;21.10;;;7.57;;
14698;SDS011;7439;50.804;4.602;2023-04-25T01:02:41;20.87;;;7.50;;
14698;SDS011;7439;50.804;4.602;2023-04-25T01:05:10;18.60;;;8.40;;
14698;SDS011;7439;50.804;4.602;2023-04-25T01:07:38;16.97;;;7.77;;
14698;SDS011;7439;50.804;4.602;2023-04-25T01:10:06;18.83;;;7.93;;
14698;SDS011;7439;50.804;4.602;2023-04-25T01:12:34;18.77;;;8.07;;
14698;SDS011;7439;50.804;4.602;2023-04-25T01:15:02;16.00;;;7.77;;
14698;SDS011;7439;50.804;4.602;2023-04-25T01:17:29;14.07;;;7.57;;
14698;SDS011;7439;50.804;4.602;2023-04-25T01:19:57;19.20;;;7.70;;
14698;SDS011;7439;50.804;4.602;2023-04-25T01:22:26;25.40;;;9.10;;
14698;SDS011;7439;50.804;4.602;2023-04-25T01:24:53;22.53;;;8.23;;
14698;SDS011;7439;50.804;4.602;2023-04-25T01:27:21;18.67;;;7.33;;
14698;SDS011;7439;50.804;4.602;2023-04-25T01:29:49;15.77;;;8.03;;
14698;SDS011;7439;50.804;4.602;2023-04-25T01:32:16;16.37;;;7.77;;
14698;SDS011;7439;50.804;4.602;2023-04-25T01:34:44;19.23;;;8.57;;
14698;SDS011;7439;50.804;4.602;2023-04-25T01:37:11;20.53;;;7.83;;
14698;SDS011;7439;50.804;4.602;2023-04-25T01:39:40;26.50;;;9.50;;
14698;SDS011;7439;50.804;4.602;2023-04-25T01:42:08;23.10;;;9.17;;
14698;SDS011;7439;50.804;4.602;2023-04-25T01:44:35;20.93;;;9.00;;
14698;SDS011;7439;50.804;4.602;2023-04-25T01:47:03;28.33;;;9.40;;
14698;SDS011;7439;50.804;4.602;2023-04-25T01:49:30;19.07;;;8.80;;
14698;SDS011;7439;50.804;4.602;2023-04-25T01:51:57;22.90;;;9.37;;
14698;SDS011;7439;50.804;4.602;2023-04-25T01:54:25;19.60;;;8.50;;
14698;SDS011;7439;50.804;4.602;2023-04-25T01:56:56;22.13;;;9.43;;
14698;SDS011;7439;50.804;4.602;2023-04-25T01:59:24;18.77;;;9.33;;
14698;SDS011;7439;50.804;4.602;2023-04-25T02:01:51;18.43;;;8.73;;
14698;SDS011;7439;50.804;4.602;2023-04-25T02:04:18;25.37;;;9.70;;
14698;SDS011;7439;50.804;4.602;2023-04-25T02:06:45;22.27;;;9.27;;
14698;SDS011;7439;50.804;4.602;2023-04-25T02:09:13;27.07;;;9.00;;
14698;SDS011;7439;50.804;4.602;2023-04-25T02:11:40;19.83;;;9.90;;
14698;SDS011;7439;50.804;4.602;2023-04-25T02:14:09;24.40;;;10.07;;
14698;SDS011;7439;50.804;4.602;2023-04-25T02:16:36;23.23;;;9.03;;
14698;SDS011;7439;50.804;4.602;2023-04-25T02:19:04;23.60;;;9.70;;
14698;SDS011;7439;50.804;4.602;2023-04-25T02:21:32;20.20;;;9.70;;
14698;SDS011;7439;50.804;4.602;2023-04-25T02:24:00;24.63;;;9.50;;
14698;SDS011;7439;50.804;4.602;2023-04-25T02:26:28;18.27;;;10.13;;
14698;SDS011;7439;50.804;4.602;2023-04-25T02:28:55;24.57;;;9.97;;
14698;SDS011;7439;50.804;4.602;2023-04-25T02:31:24;18.40;;;9.83;;
14698;SDS011;7439;50.804;4.602;2023-04-25T02:33:52;27.20;;;10.53;;
14698;SDS011;7439;50.804;4.602;2023-04-25T02:36:19;26.07;;;10.87;;
14698;SDS011;7439;50.804;4.602;2023-04-25T02:38:47;27.87;;;10.37;;
14698;SDS011;7439;50.804;4.602;2023-04-25T02:41:14;22.20;;;10.23;;
14698;SDS011;7439;50.804;4.602;2023-04-25T02:43:41;14.80;;;8.77;;
14698;SDS011;7439;50.804;4.602;2023-04-25T02:46:09;19.53;;;10.00;;
14698;SDS011;7439;50.804;4.602;2023-04-25T02:48:37;23.80;;;9.20;;
14698;SDS011;7439;50.804;4.602;2023-04-25T02:51:05;15.47;;;7.27;;
14698;SDS011;7439;50.804;4.602;2023-04-25T02:53:32;18.77;;;7.37;;
14698;SDS011;7439;50.804;4.602;2023-04-25T02:55:59;16.93;;;6.73;;
14698;SDS011;7439;50.804;4.602;2023-04-25T02:58:27;17.80;;;7.27;;
14698;SDS011;7439;50.804;4.602;2023-04-25T03:00:54;16.60;;;7.70;;
14698;SDS011;7439;50.804;4.602;2023-04-25T03:03:21;11.27;;;6.80;;
14698;SDS011;7439;50.804;4.602;2023-04-25T03:05:50;15.30;;;7.40;;
14698;SDS011;7439;50.804;4.602;2023-04-25T03:08:18;13.47;;;7.03;;
14698;SDS011;7439;50.804;4.602;2023-04-25T03:10:46;15.33;;;7.77;;
14698;SDS011;7439;50.804;4.602;2023-04-25T03:13:15;19.77;;;7.40;;
14698;SDS011;7439;50.804;4.602;2023-04-25T03:15:43;14.37;;;7.63;;
14698;SDS011;7439;50.804;4.602;2023-04-25T03:18:10;14.37;;;7.20;;
14698;SDS011;7439;50.804;4.602;2023-04-25T03:20:38;20.83;;;8.13;;
14698;SDS011;7439;50.804;4.602;2023-04-25T03:23:08;14.50;;;7.37;;
14698;SDS011;7439;50.804;4.602;2023-04-25T03:25:35;14.00;;;7.47;;
14698;SDS011;7439;50.804;4.602;2023-04-25T03:28:03;17.37;;;7.60;;
14698;SDS011;7439;50.804;4.602;2023-04-25T03:30:30;14.90;;;7.13;;
14698;SDS011;7439;50.804;4.602;2023-04-25T03:32:58;17.33;;;7.30;;
14698;SDS011;7439;50.804;4.602;2023-04-25T03:35:26;21.60;;;8.20;;
14698;SDS011;7439;50.804;4.602;2023-04-25T03:37:53;15.07;;;7.30;;
14698;SDS011;7439;50.804;4.602;2023-04-25T03:40:22;17.07;;;8.07;;
14698;SDS011;7439;50.804;4.602;2023-04-25T03:42:51;22.83;;;7.53;;
14698;SDS011;7439;50.804;4.602;2023-04-25T03:45:19;13.37;;;7.20;;
14698;SDS011;7439;50.804;4.602;2023-04-25T03:47:46;16.57;;;8.47;;
14698;SDS011;7439;50.804;4.602;2023-04-25T03:50:13;18.37;;;8.50;;
14698;SDS011;7439;50.804;4.602;2023-04-25T03:52:41;21.73;;;9.23;;
14698;SDS011;7439;50.804;4.602;2023-04-25T03:55:08;19.33;;;10.67;;
14698;SDS011;7439;50.804;4.602;2023-04-25T03:57:37;27.30;;;9.87;;
14698;SDS011;7439;50.804;4.602;2023-04-25T04:00:05;23.33;;;10.90;;
14698;SDS011;7439;50.804;4.602;2023-04-25T04:02:33;20.33;;;8.67;;
14698;SDS011;7439;50.804;4.602;2023-04-25T04:05:01;21.30;;;8.37;;
14698;SDS011;7439;50.804;4.602;2023-04-25T04:07:28;24.90;;;8.07;;
14698;SDS011;7439;50.804;4.602;2023-04-25T04:09:58;23.73;;;8.20;;
14698;SDS011;7439;50.804;4.602;2023-04-25T04:12:25;20.03;;;8.80;;
14698;SDS011;7439;50.804;4.602;2023-04-25T04:14:54;19.13;;;7.93;;
14698;SDS011;7439;50.804;4.602;2023-04-25T04:17:21;15.80;;;7.67;;
14698;SDS011;7439;50.804;4.602;2023-04-25T04:19:48;31.50;;;9.37;;
14698;SDS011;7439;50.804;4.602;2023-04-25T04:22:16;18.13;;;9.10;;
14698;SDS011;7439;50.804;4.602;2023-04-25T04:24:43;16.37;;;7.27;;
14698;SDS011;7439;50.804;4.602;2023-04-25T04:27:11;20.90;;;7.50;;
14698;SDS011;7439;50.804;4.602;2023-04-25T04:29:39;17.63;;;7.10;;
14698;SDS011;7439;50.804;4.602;2023-04-25T04:32:08;17.47;;;7.30;;
14698;SDS011;7439;50.804;4.602;2023-04-25T04:34:35;16.57;;;7.53;;
14698;SDS011;7439;50.804;4.602;2023-04-25T04:37:04;11.33;;;7.03;;
14698;SDS011;7439;50.804;4.602;2023-04-25T04:39:32;18.10;;;7.87;;
14698;SDS011;7439;50.804;4.602;2023-04-25T04:41:59;16.87;;;7.20;;
14698;SDS011;7439;50.804;4.602;2023-04-25T04:44:29;19.57;;;7.43;;
14698;SDS011;7439;50.804;4.602;2023-04-25T04:46:57;13.80;;;7.70;;
14698;SDS011;7439;50.804;4.602;2023-04-25T04:49:26;19.30;;;7.97;;
14698;SDS011;7439;50.804;4.602;2023-04-25T04:51:53;18.80;;;8.60;;
14698;SDS011;7439;50.804;4.602;2023-04-25T04:54:21;15.50;;;7.53;;
14698;SDS011;7439;50.804;4.602;2023-04-25T04:56:48;21.10;;;7.37;;
14698;SDS011;7439;50.804;4.602;2023-04-25T04:59:16;21.20;;;7.33;;
14698;SDS011;7439;50.804;4.602;2023-04-25T05:01:43;17.10;;;7.60;;
14698;SDS011;7439;50.804;4.602;2023-04-25T05:04:11;20.30;;;7.87;;
14698;SDS011;7439;50.804;4.602;2023-04-25T05:06:40;19.17;;;7.60;;
14698;SDS011;7439;50.804;4.602;2023-04-25T05:09:07;17.30;;;8.50;;
14698;SDS011;7439;50.804;4.602;2023-04-25T05:11:35;20.13;;;7.97;;
14698;SDS011;7439;50.804;4.602;2023-04-25T05:14:02;17.57;;;8.03;;
14698;SDS011;7439;50.804;4.602;2023-04-25T05:16:30;18.50;;;7.20;;
14698;SDS011;7439;50.804;4.602;2023-04-25T05:18:58;17.57;;;6.93;;
14698;SDS011;7439;50.804;4.602;2023-04-25T05:21:25;18.90;;;8.47;;
14698;SDS011;7439;50.804;4.602;2023-04-25T05:23:54;16.40;;;7.23;;
14698;SDS011;7439;50.804;4.602;2023-04-25T05:26:22;17.43;;;8.47;;
14698;SDS011;7439;50.804;4.602;2023-04-25T05:28:49;16.97;;;8.27;;
14698;SDS011;7439;50.804;4.602;2023-04-25T05:31:17;14.60;;;7.40;;
14698;SDS011;7439;50.804;4.602;2023-04-25T05:33:45;22.33;;;8.03;;
14698;SDS011;7439;50.804;4.602;2023-04-25T05:36:13;14.77;;;7.20;;
14698;SDS011;7439;50.804;4.602;2023-04-25T05:38:40;17.40;;;7.13;;
14698;SDS011;7439;50.804;4.602;2023-04-25T05:41:09;13.07;;;7.63;;
14698;SDS011;7439;50.804;4.602;2023-04-25T05:43:37;24.37;;;9.17;;
14698;SDS011;7439;50.804;4.602;2023-04-25T05:46:04;16.50;;;8.43;;
14698;SDS011;7439;50.804;4.602;2023-04-25T05:48:31;11.63;;;7.60;;
14698;SDS011;7439;50.804;4.602;2023-04-25T05:50:59;19.47;;;8.13;;
14698;SDS011;7439;50.804;4.602;2023-04-25T05:53:26;15.37;;;7.73;;
14698;SDS011;7439;50.804;4.602;2023-04-25T05:55:53;26.60;;;7.53;;
14698;SDS011;7439;50.804;4.602;2023-04-25T05:58:22;19.73;;;7.30;;
14698;SDS011;7439;50.804;4.602;2023-04-25T06:00:49;20.37;;;8.37;;
14698;SDS011;7439;50.804;4.602;2023-04-25T06:03:17;18.70;;;8.43;;
14698;SDS011;7439;50.804;4.602;2023-04-25T06:05:45;13.87;;;7.13;;
14698;SDS011;7439;50.804;4.602;2023-04-25T06:08:12;18.23;;;9.27;;
14698;SDS011;7439;50.804;4.602;2023-04-25T06:10:40;20.13;;;7.87;;
14698;SDS011;7439;50.804;4.602;2023-04-25T06:13:07;20.73;;;8.57;;
14698;SDS011;7439;50.804;4.602;2023-04-25T06:15:36;17.80;;;8.43;;
14698;SDS011;7439;50.804;4.602;2023-04-25T06:18:03;15.13;;;7.70;;
14698;SDS011;7439;50.804;4.602;2023-04-25T06:20:31;24.87;;;9.83;;
14698;SDS011;7439;50.804;4.602;2023-04-25T06:22:58;17.90;;;8.73;;
14698;SDS011;7439;50.804;4.602;2023-04-25T06:25:25;21.27;;;9.17;;
14698;SDS011;7439;50.804;4.602;2023-04-25T06:27:53;18.10;;;8.77;;
14698;SDS011;7439;50.804;4.602;2023-04-25T06:30:20;19.87;;;10.20;;
14698;SDS011;7439;50.804;4.602;2023-04-25T06:32:52;21.87;;;8.77;;
14698;SDS011;7439;50.804;4.602;2023-04-25T06:35:19;26.57;;;9.63;;
14698;SDS011;7439;50.804;4.602;2023-04-25T06:37:46;18.70;;;9.63;;
14698;SDS011;7439;50.804;4.602;2023-04-25T06:40:14;20.53;;;9.17;;
14698;SDS011;7439;50.804;4.602;2023-04-25T06:42:42;15.03;;;8.37;;
14698;SDS011;7439;50.804;4.602;2023-04-25T06:45:10;20.87;;;9.50;;
14698;SDS011;7439;50.804;4.602;2023-04-25T06:47:37;18.03;;;10.40;;
14698;SDS011;7439;50.804;4.602;2023-04-25T06:50:07;23.17;;;9.20;;
14698;SDS011;7439;50.804;4.602;2023-04-25T06:52:34;16.13;;;8.53;;
14698;SDS011;7439;50.804;4.602;2023-04-25T06:55:01;18.47;;;9.73;;
14698;SDS011;7439;50.804;4.602;2023-04-25T06:57:30;20.37;;;8.70;;
14698;SDS011;7439;50.804;4.602;2023-04-25T06:59:57;22.43;;;9.87;;
14698;SDS011;7439;50.804;4.602;2023-04-25T07:02:24;14.53;;;9.07;;
14698;SDS011;7439;50.804;4.602;2023-04-25T07:04:52;17.83;;;10.37;;
14698;SDS011;7439;50.804;4.602;2023-04-25T07:07:22;23.60;;;9.90;;
14698;SDS011;7439;50.804;4.602;2023-04-25T07:09:50;17.10;;;9.27;;
14698;SDS011;7439;50.804;4.602;2023-04-25T07:12:17;23.03;;;9.00;;
14698;SDS011;7439;50.804;4.602;2023-04-25T07:14:44;18.87;;;9.53;;
14698;SDS011;7439;50.804;4.602;2023-04-25T07:17:11;20.93;;;9.37;;
14698;SDS011;7439;50.804;4.602;2023-04-25T07:19:39;17.60;;;9.53;;
14698;SDS011;7439;50.804;4.602;2023-04-25T07:22:09;18.87;;;10.00;;
14698;SDS011;7439;50.804;4.602;2023-04-25T07:24:40;21.73;;;9.97;;
14698;SDS011;7439;50.804;4.602;2023-04-25T07:27:07;16.50;;;9.77;;
14698;SDS011;7439;50.804;4.602;2023-04-25T07:29:34;15.87;;;10.13;;
14698;SDS011;7439;50.804;4.602;2023-04-25T07:32:02;22.37;;;10.27;;
14698;SDS011;7439;50.804;4.602;2023-04-25T07:34:29;19.57;;;10.17;;
14698;SDS011;7439;50.804;4.602;2023-04-25T07:36:57;27.27;;;11.43;;
14698;SDS011;7439;50.804;4.602;2023-04-25T07:39:25;20.83;;;11.50;;
14698;SDS011;7439;50.804;4.602;2023-04-25T07:41:54;21.97;;;10.93;;
14698;SDS011;7439;50.804;4.602;2023-04-25T07:44:23;19.90;;;11.47;;
14698;SDS011;7439;50.804;4.602;2023-04-25T07:46:51;25.57;;;12.53;;
14698;SDS011;7439;50.804;4.602;2023-04-25T07:49:18;22.13;;;12.80;;
14698;SDS011;7439;50.804;4.602;2023-04-25T07:51:46;20.40;;;12.30;;
14698;SDS011;7439;50.804;4.602;2023-04-25T07:54:13;22.17;;;13.63;;
14698;SDS011;7439;50.804;4.602;2023-04-25T07:56:44;22.93;;;13.00;;
14698;SDS011;7439;50.804;4.602;2023-04-25T07:59:12;20.80;;;14.10;;
14698;SDS011;7439;50.804;4.602;2023-04-25T08:01:40;18.47;;;13.13;;
14698;SDS011;7439;50.804;4.602;2023-04-25T08:04:07;15.07;;;12.30;;
14698;SDS011;7439;50.804;4.602;2023-04-25T08:06:34;16.53;;;12.20;;
14698;SDS011;7439;50.804;4.602;2023-04-25T08:09:02;16.83;;;12.33;;
14698;SDS011;7439;50.804;4.602;2023-04-25T08:11:30;19.20;;;12.07;;
14698;SDS011;7439;50.804;4.602;2023-04-25T08:13:57;18.33;;;11.50;;
14698;SDS011;7439;50.804;4.602;2023-04-25T08:16:26;16.53;;;11.27;;
14698;SDS011;7439;50.804;4.602;2023-04-25T08:18:53;24.30;;;12.13;;
14698;SDS011;7439;50.804;4.602;2023-04-25T08:21:20;21.10;;;12.50;;
14698;SDS011;7439;50.804;4.602;2023-04-25T08:23:48;22.40;;;12.43;;
14698;SDS011;7439;50.804;4.602;2023-04-25T08:26:15;18.00;;;11.40;;
14698;SDS011;7439;50.804;4.602;2023-04-25T08:28:46;21.93;;;10.73;;
14698;SDS011;7439;50.804;4.602;2023-04-25T08:31:14;12.77;;;9.57;;
14698;SDS011;7439;50.804;4.602;2023-04-25T08:33:43;15.70;;;9.70;;
14698;SDS011;7439;50.804;4.602;2023-04-25T08:36:11;12.97;;;10.97;;
14698;SDS011;7439;50.804;4.602;2023-04-25T08:38:38;18.10;;;11.13;;
14698;SDS011;7439;50.804;4.602;2023-04-25T08:41:05;19.53;;;10.37;;
14698;SDS011;7439;50.804;4.602;2023-04-25T08:43:33;13.70;;;9.50;;
14698;SDS011;7439;50.804;4.602;2023-04-25T08:46:01;11.83;;;8.37;;
14698;SDS011;7439;50.804;4.602;2023-04-25T08:48:29;12.47;;;8.47;;
14698;SDS011;7439;50.804;4.602;2023-04-25T08:51:01;15.33;;;9.53;;
14698;SDS011;7439;50.804;4.602;2023-04-25T08:53:29;14.60;;;9.80;;
14698;SDS011;7439;50.804;4.602;2023-04-25T08:55:58;13.17;;;8.83;;
14698;SDS011;7439;50.804;4.602;2023-04-25T08:58:26;12.70;;;9.60;;
14698;SDS011;7439;50.804;4.602;2023-04-25T09:00:54;16.83;;;8.97;;
14698;SDS011;7439;50.804;4.602;2023-04-25T09:03:21;14.20;;;8.67;;
14698;SDS011;7439;50.804;4.602;2023-04-25T09:05:49;15.23;;;8.83;;
14698;SDS011;7439;50.804;4.602;2023-04-25T09:08:18;9.90;;;7.93;;
14698;SDS011;7439;50.804;4.602;2023-04-25T09:10:45;15.20;;;9.87;;
14698;SDS011;7439;50.804;4.602;2023-04-25T09:13:13;12.70;;;8.00;;
14698;SDS011;7439;50.804;4.602;2023-04-25T09:15:47;13.23;;;6.27;;
14698;SDS011;7439;50.804;4.602;2023-04-25T09:18:21;12.40;;;5.97;;
14698;SDS011;7439;50.804;4.602;2023-04-25T09:20:50;12.57;;;6.47;;
14698;SDS011;7439;50.804;4.602;2023-04-25T09:23:20;10.93;;;5.63;;
14698;SDS011;7439;50.804;4.602;2023-04-25T09:25:47;7.90;;;4.53;;
14698;SDS011;7439;50.804;4.602;2023-04-25T09:28:15;8.60;;;4.33;;
14698;SDS011;7439;50.804;4.602;2023-04-25T09:30:46;8.87;;;4.30;;
14698;SDS011;7439;50.804;4.602;2023-04-25T09:33:13;12.23;;;4.83;;
14698;SDS011;7439;50.804;4.602;2023-04-25T09:35:41;9.63;;;4.33;;
14698;SDS011;7439;50.804;4.602;2023-04-25T09:38:09;7.70;;;4.27;;
14698;SDS011;7439;50.804;4.602;2023-04-25T09:40:42;10.87;;;4.20;;
14698;SDS011;7439;50.804;4.602;2023-04-25T09:43:10;12.13;;;3.97;;
14698;SDS011;7439;50.804;4.602;2023-04-25T09:45:45;9.60;;;4.60;;
14698;SDS011;7439;50.804;4.602;2023-04-25T09:48:16;8.40;;;4.07;;
14698;SDS011;7439;50.804;4.602;2023-04-25T09:50:51;12.60;;;4.00;;
14698;SDS011;7439;50.804;4.602;2023-04-25T09:53:30;9.43;;;4.27;;
14698;SDS011;7439;50.804;4.602;2023-04-25T09:56:00;11.57;;;4.07;;
14698;SDS011;7439;50.804;4.602;2023-04-25T09:58:27;12.43;;;4.43;;
14698;SDS011;7439;50.804;4.602;2023-04-25T10:00:56;8.07;;;4.07;;
14698;SDS011;7439;50.804;4.602;2023-04-25T10:03:26;9.57;;;4.17;;
14698;SDS011;7439;50.804;4.602;2023-04-25T10:05:54;9.77;;;3.93;;
14698;SDS011;7439;50.804;4.602;2023-04-25T10:08:24;8.07;;;3.93;;
14698;SDS011;7439;50.804;4.602;2023-04-25T10:10:52;10.83;;;4.30;;
14698;SDS011;7439;50.804;4.602;2023-04-25T10:13:20;8.00;;;4.30;;
14698;SDS011;7439;50.804;4.602;2023-04-25T10:15:50;11.67;;;4.60;;
14698;SDS011;7439;50.804;4.602;2023-04-25T10:18:19;9.60;;;4.03;;
14698;SDS011;7439;50.804;4.602;2023-04-25T10:20:46;10.00;;;4.20;;
14698;SDS011;7439;50.804;4.602;2023-04-25T10:23:14;9.67;;;3.50;;
14698;SDS011;7439;50.804;4.602;2023-04-25T10:25:42;12.47;;;3.60;;
14698;SDS011;7439;50.804;4.602;2023-04-25T10:28:09;7.23;;;3.33;;
14698;SDS011;7439;50.804;4.602;2023-04-25T10:30:38;9.60;;;3.53;;
14698;SDS011;7439;50.804;4.602;2023-04-25T10:33:29;8.60;;;3.57;;
14698;SDS011;7439;50.804;4.602;2023-04-25T10:35:57;6.13;;;3.20;;
14698;SDS011;7439;50.804;4.602;2023-04-25T10:38:25;7.77;;;3.10;;
14698;SDS011;7439;50.804;4.602;2023-04-25T10:43:38;8.73;;;2.77;;
14698;SDS011;7439;50.804;4.602;2023-04-25T10:46:16;7.67;;;3.10;;
14698;SDS011;7439;50.804;4.602;2023-04-25T10:48:47;6.00;;;2.90;;
14698;SDS011;7439;50.804;4.602;2023-04-25T10:51:16;6.97;;;2.70;;
14698;SDS011;7439;50.804;4.602;2023-04-25T10:53:43;6.40;;;2.80;;
14698;SDS011;7439;50.804;4.602;2023-04-25T10:56:11;5.03;;;2.90;;
14698;SDS011;7439;50.804;4.602;2023-04-25T10:58:42;4.93;;;2.27;;
14698;SDS011;7439;50.804;4.602;2023-04-25T11:01:09;4.00;;;2.30;;
14698;SDS011;7439;50.804;4.602;2023-04-25T11:03:42;6.03;;;3.00;;
14698;SDS011;7439;50.804;4.602;2023-04-25T11:06:12;7.20;;;2.63;;
14698;SDS011;7439;50.804;4.602;2023-04-25T11:08:45;6.33;;;2.60;;
14698;SDS011;7439;50.804;4.602;2023-04-25T11:11:14;3.87;;;2.40;;
14698;SDS011;7439;50.804;4.602;2023-04-25T11:13:41;5.80;;;2.57;;
14698;SDS011;7439;50.804;4.602;2023-04-25T11:16:09;6.90;;;2.73;;
14698;SDS011;7439;50.804;4.602;2023-04-25T11:18:36;3.47;;;2.33;;
14698;SDS011;7439;50.804;4.602;2023-04-25T11:21:05;6.17;;;2.97;;
14698;SDS011;7439;50.804;4.602;2023-04-25T11:23:32;10.83;;;2.90;;
14698;SDS011;7439;50.804;4.602;2023-04-25T11:26:00;4.70;;;2.60;;
14698;SDS011;7439;50.804;4.602;2023-04-25T11:28:27;6.70;;;2.60;;
14698;SDS011;7439;50.804;4.602;2023-04-25T11:30:55;5.33;;;3.03;;
14698;SDS011;7439;50.804;4.602;2023-04-25T11:33:22;5.97;;;2.93;;
14698;SDS011;7439;50.804;4.602;2023-04-25T11:35:51;8.20;;;3.67;;
14698;SDS011;7439;50.804;4.602;2023-04-25T11:38:21;10.63;;;3.40;;
14698;SDS011;7439;50.804;4.602;2023-04-25T11:40:51;9.80;;;3.17;;
14698;SDS011;7439;50.804;4.602;2023-04-25T11:43:19;7.13;;;2.87;;
14698;SDS011;7439;50.804;4.602;2023-04-25T11:45:47;6.97;;;3.10;;
14698;SDS011;7439;50.804;4.602;2023-04-25T11:48:15;6.97;;;2.73;;
14698;SDS011;7439;50.804;4.602;2023-04-25T11:50:43;6.57;;;2.80;;
14698;SDS011;7439;50.804;4.602;2023-04-25T11:53:10;6.13;;;2.60;;
14698;SDS011;7439;50.804;4.602;2023-04-25T11:55:39;13.20;;;3.27;;
14698;SDS011;7439;50.804;4.602;2023-04-25T11:58:07;13.80;;;2.90;;
14698;SDS011;7439;50.804;4.602;2023-04-25T12:00:34;8.17;;;2.70;;
14698;SDS011;7439;50.804;4.602;2023-04-25T12:03:02;5.67;;;2.90;;
14698;SDS011;7439;50.804;4.602;2023-04-25T12:05:29;5.57;;;3.47;;
14698;SDS011;7439;50.804;4.602;2023-04-25T12:07:58;11.67;;;3.40;;
14698;SDS011;7439;50.804;4.602;2023-04-25T12:10:36;7.80;;;2.93;;
14698;SDS011;7439;50.804;4.602;2023-04-25T12:13:18;6.83;;;3.27;;
14698;SDS011;7439;50.804;4.602;2023-04-25T12:15:46;4.70;;;2.40;;
14698;SDS011;7439;50.804;4.602;2023-04-25T12:18:14;4.17;;;2.73;;
14698;SDS011;7439;50.804;4.602;2023-04-25T12:20:41;4.70;;;2.20;;
14698;SDS011;7439;50.804;4.602;2023-04-25T12:23:09;4.47;;;2.60;;
14698;SDS011;7439;50.804;4.602;2023-04-25T12:25:38;6.53;;;2.50;;
14698;SDS011;7439;50.804;4.602;2023-04-25T12:28:09;8.63;;;2.73;;
14698;SDS011;7439;50.804;4.602;2023-04-25T12:33:33;6.87;;;3.03;;
14698;SDS011;7439;50.804;4.602;2023-04-25T12:36:01;4.53;;;2.40;;
14698;SDS011;7439;50.804;4.602;2023-04-25T12:38:35;6.03;;;3.00;;
14698;SDS011;7439;50.804;4.602;2023-04-25T12:41:02;5.03;;;2.00;;
14698;SDS011;7439;50.804;4.602;2023-04-25T12:43:30;7.23;;;2.50;;
14698;SDS011;7439;50.804;4.602;2023-04-25T12:45:57;4.50;;;2.10;;
14698;SDS011;7439;50.804;4.602;2023-04-25T12:48:25;3.73;;;2.03;;
14698;SDS011;7439;50.804;4.602;2023-04-25T12:50:53;6.70;;;2.23;;
14698;SDS011;7439;50.804;4.602;2023-04-25T12:53:21;3.53;;;2.13;;
14698;SDS011;7439;50.804;4.602;2023-04-25T12:55:49;2.20;;;1.70;;
14698;SDS011;7439;50.804;4.602;2023-04-25T12:58:17;2.87;;;1.67;;
14698;SDS011;7439;50.804;4.602;2023-04-25T13:00:45;4.03;;;1.83;;
14698;SDS011;7439;50.804;4.602;2023-04-25T13:03:12;3.53;;;1.80;;
14698;SDS011;7439;50.804;4.602;2023-04-25T13:05:40;3.30;;;1.80;;
14698;SDS011;7439;50.804;4.602;2023-04-25T13:08:08;3.97;;;2.27;;
14698;SDS011;7439;50.804;4.602;2023-04-25T13:10:36;3.27;;;1.97;;
14698;SDS011;7439;50.804;4.602;2023-04-25T13:13:07;4.00;;;1.90;;
14698;SDS011;7439;50.804;4.602;2023-04-25T13:15:34;4.23;;;1.70;;
14698;SDS011;7439;50.804;4.602;2023-04-25T13:18:02;3.93;;;2.00;;
14698;SDS011;7439;50.804;4.602;2023-04-25T13:20:30;4.30;;;1.90;;
14698;SDS011;7439;50.804;4.602;2023-04-25T13:22:57;1.93;;;1.53;;
14698;SDS011;7439;50.804;4.602;2023-04-25T13:25:26;3.43;;;1.70;;
14698;SDS011;7439;50.804;4.602;2023-04-25T13:27:54;4.27;;;1.73;;
14698;SDS011;7439;50.804;4.602;2023-04-25T13:30:21;4.07;;;2.40;;
14698;SDS011;7439;50.804;4.602;2023-04-25T13:32:49;4.73;;;2.00;;
14698;SDS011;7439;50.804;4.602;2023-04-25T13:35:16;6.00;;;2.40;;
14698;SDS011;7439;50.804;4.602;2023-04-25T13:37:44;5.30;;;2.20;;
14698;SDS011;7439;50.804;4.602;2023-04-25T13:40:11;4.90;;;2.30;;
14698;SDS011;7439;50.804;4.602;2023-04-25T13:42:40;5.33;;;2.17;;
14698;SDS011;7439;50.804;4.602;2023-04-25T13:45:09;6.47;;;2.07;;
14698;SDS011;7439;50.804;4.602;2023-04-25T13:47:36;4.57;;;1.90;;
14698;SDS011;7439;50.804;4.602;2023-04-25T13:50:04;5.50;;;2.40;;
14698;SDS011;7439;50.804;4.602;2023-04-25T13:52:32;4.37;;;2.00;;
14698;SDS011;7439;50.804;4.602;2023-04-25T13:54:59;3.73;;;1.50;;
14698;SDS011;7439;50.804;4.602;2023-04-25T13:57:28;4.53;;;1.90;;
14698;SDS011;7439;50.804;4.602;2023-04-25T13:59:57;3.97;;;2.20;;
14698;SDS011;7439;50.804;4.602;2023-04-25T14:02:29;4.33;;;1.90;;
14698;SDS011;7439;50.804;4.602;2023-04-25T14:04:57;5.03;;;1.93;;
14698;SDS011;7439;50.804;4.602;2023-04-25T14:07:24;4.50;;;2.00;;
14698;SDS011;7439;50.804;4.602;2023-04-25T14:09:52;4.93;;;1.80;;
14698;SDS011;7439;50.804;4.602;2023-04-25T14:12:19;3.77;;;2.10;;
14698;SDS011;7439;50.804;4.602;2023-04-25T14:14:46;6.27;;;2.30;;
14698;SDS011;7439;50.804;4.602;2023-04-25T14:17:15;5.63;;;2.10;;
14698;SDS011;7439;50.804;4.602;2023-04-25T14:19:42;4.90;;;1.90;;
14698;SDS011;7439;50.804;4.602;2023-04-25T14:22:12;7.53;;;2.23;;
14698;SDS011;7439;50.804;4.602;2023-04-25T14:24:40;3.73;;;2.20;;
14698;SDS011;7439;50.804;4.602;2023-04-25T14:27:08;4.50;;;2.10;;
14698;SDS011;7439;50.804;4.602;2023-04-25T14:29:35;4.60;;;2.23;;
14698;SDS011;7439;50.804;4.602;2023-04-25T14:32:02;4.90;;;2.50;;
14698;SDS011;7439;50.804;4.602;2023-04-25T14:34:32;3.00;;;1.90;;
14698;SDS011;7439;50.804;4.602;2023-04-25T14:36:59;5.63;;;2.10;;
14698;SDS011;7439;50.804;4.602;2023-04-25T14:39:27;6.13;;;2.23;;
14698;SDS011;7439;50.804;4.602;2023-04-25T14:41:54;2.90;;;2.20;;
14698;SDS011;7439;50.804;4.602;2023-04-25T14:44:21;6.53;;;2.10;;
14698;SDS011;7439;50.804;4.602;2023-04-25T14:46:49;3.73;;;2.20;;
14698;SDS011;7439;50.804;4.602;2023-04-25T14:49:17;4.13;;;2.13;;
14698;SDS011;7439;50.804;4.602;2023-04-25T14:51:46;5.50;;;2.37;;
14698;SDS011;7439;50.804;4.602;2023-04-25T14:54:13;2.87;;;1.97;;
14698;SDS011;7439;50.804;4.602;2023-04-25T14:56:40;5.30;;;1.77;;
14698;SDS011;7439;50.804;4.602;2023-04-25T14:59:08;3.17;;;1.93;;
14698;SDS011;7439;50.804;4.602;2023-04-25T15:01:35;3.40;;;2.00;;